Time;durP1;ratioP1;P1;durP2;ratioP2;P2;SDS_P1;SDS_P2;PMS_P1;PMS_P2;Temp;Humidity;BMP_temperature;BMP_pressure;BME280_temperature;BME280_humidity;BME280_pressure;Samples;Min_cycle;Max_cycle;Signal;HPM_P1;HPM_P2
2022/07/11 00:01:41;;;;;;;9.43;4.75;;;;;;;18.23;77.77;101640.81;5008046;28;20050;-83
2022/07/11 00:04:08;;;;;;;7.53;4.55;;;;;;;18.19;78.09;101642.16;5002434;28;20061;-83
2022/07/11 00:06:35;;;;;;;9.73;4.93;;;;;;;18.19;78.38;101639.53;5006568;28;20296;-84
2022/07/11 00:09:01;;;;;;;8.93;5.00;;;;;;;18.13;78.41;101644.72;5015898;28;20054;-86
2022/07/11 00:11:28;;;;;;;9.40;4.88;;;;;;;18.12;78.40;101635.94;5012332;28;20049;-84
2022/07/11 00:13:55;;;;;;;6.70;4.47;;;;;;;18.13;78.57;101634.13;5005078;28;20050;-84
2022/07/11 00:16:23;;;;;;;8.15;5.03;;;;;;;18.13;78.88;101632.28;5009282;28;20077;-82
2022/07/11 00:18:50;;;;;;;6.70;4.65;;;;;;;18.10;79.16;101637.13;5002990;28;20061;-83
2022/07/11 00:21:16;;;;;;;7.85;4.40;;;;;;;18.09;79.28;101640.78;5003294;28;20070;-82
2022/07/11 00:23:43;;;;;;;9.60;4.93;;;;;;;18.02;79.54;101630.09;4987701;28;20338;-83
2022/07/11 00:26:10;;;;;;;9.35;5.10;;;;;;;17.91;79.45;101614.66;5038637;23;20049;-82
2022/07/11 00:28:36;;;;;;;9.35;5.40;;;;;;;17.98;79.60;101627.97;5054773;28;20087;-81
2022/07/11 00:31:03;;;;;;;8.45;5.00;;;;;;;18.02;79.72;101632.72;5062373;28;20071;-81
2022/07/11 00:33:31;;;;;;;7.65;4.68;;;;;;;17.97;79.88;101637.75;5037903;28;20078;-82
2022/07/11 00:35:58;;;;;;;7.65;5.00;;;;;;;17.92;80.32;101640.13;5014404;28;20085;-83
2022/07/11 00:38:24;;;;;;;9.95;4.97;;;;;;;17.91;80.41;101638.50;5002461;28;20229;-85
2022/07/11 00:40:51;;;;;;;7.00;4.80;;;;;;;17.82;80.80;101634.25;5006511;28;20046;-82
2022/07/11 00:43:19;;;;;;;8.98;5.47;;;;;;;17.77;81.28;101632.16;5005464;28;20051;-82
2022/07/11 00:45:45;;;;;;;12.02;5.35;;;;;;;17.80;81.12;101636.25;5002418;28;20057;-85
2022/07/11 00:48:12;;;;;;;6.85;5.07;;;;;;;17.74;81.39;101635.16;5001728;28;20058;-83
2022/07/11 00:50:40;;;;;;;10.63;5.30;;;;;;;17.70;81.73;101633.84;5005175;28;20054;-82
2022/07/11 00:53:07;;;;;;;7.80;4.93;;;;;;;17.72;81.91;101644.28;5024112;28;20050;-83
2022/07/11 00:55:34;;;;;;;7.47;5.40;;;;;;;17.70;81.74;101641.78;5022374;28;20418;-82
2022/07/11 00:58:01;;;;;;;10.57;5.10;;;;;;;17.64;82.40;101634.53;5021214;28;20060;-81
2022/07/11 01:00:27;;;;;;;8.23;5.25;;;;;;;17.69;82.14;101628.75;5021253;28;20426;-82
2022/07/11 01:02:54;;;;;;;9.38;5.03;;;;;;;17.69;82.10;101631.38;5023276;28;20108;-83
2022/07/11 01:05:21;;;;;;;8.23;5.30;;;;;;;17.66;82.24;101634.38;5022838;28;20109;-81
2022/07/11 01:07:49;;;;;;;6.68;4.68;;;;;;;17.59;82.53;101631.59;5023352;28;20502;-84
2022/07/11 01:10:18;;;;;;;9.77;5.78;;;;;;;17.53;82.84;101630.47;5025159;28;20053;-84
2022/07/11 01:12:45;;;;;;;6.38;4.80;;;;;;;17.53;82.57;101624.38;5023281;28;20080;-85
2022/07/11 01:15:15;;;;;;;8.10;5.60;;;;;;;17.52;82.94;101631.47;5025648;28;20085;-84
2022/07/11 01:17:42;;;;;;;9.30;5.60;;;;;;;17.46;83.28;101624.28;5027399;28;20054;-81
2022/07/11 01:20:09;;;;;;;9.02;5.75;;;;;;;17.42;83.43;101627.44;5026059;28;20076;-83
2022/07/11 01:22:43;;;;;;;8.55;5.60;;;;;;;17.40;83.59;101624.97;5014362;28;20414;-83
2022/07/11 01:25:29;;;;;;;9.88;5.35;;;;;;;17.34;83.93;101625.69;5005828;28;20077;-81
2022/07/11 01:27:56;;;;;;;7.03;5.47;;;;;;;17.32;84.21;101632.16;5025718;28;20459;-83
2022/07/11 01:30:23;;;;;;;9.65;5.57;;;;;;;17.28;84.51;101631.66;5024098;28;20082;-82
2022/07/11 01:32:51;;;;;;;9.43;5.65;;;;;;;17.24;84.64;101623.25;5022862;28;20077;-81
2022/07/11 01:35:18;;;;;;;10.60;6.55;;;;;;;17.17;85.14;101621.47;5023486;28;20078;-82
2022/07/11 01:37:51;;;;;;;10.32;5.68;;;;;;;17.18;84.78;101620.50;5024218;28;20109;-82
2022/07/11 01:40:20;;;;;;;9.43;5.50;;;;;;;17.15;84.92;101623.47;5024470;28;20117;-82
2022/07/11 01:42:47;;;;;;;10.93;6.07;;;;;;;17.09;85.14;101616.25;5016126;28;20056;-80
2022/07/11 01:45:14;;;;;;;10.57;6.03;;;;;;;17.04;85.33;101629.16;5016931;28;20046;-85
2022/07/11 01:47:43;;;;;;;8.68;5.85;;;;;;;16.96;85.87;101626.59;5033892;28;20046;-84
2022/07/11 01:50:10;;;;;;;12.05;5.95;;;;;;;16.89;86.15;101629.09;5026464;28;20105;-85
2022/07/11 01:52:36;;;;;;;10.50;6.25;;;;;;;16.79;86.80;101625.84;5004569;28;20422;-85
2022/07/11 01:55:03;;;;;;;10.43;6.38;;;;;;;16.71;87.08;101625.88;5010151;28;20050;-84
2022/07/11 01:57:31;;;;;;;9.60;6.78;;;;;;;16.56;87.70;101617.78;5022552;28;20077;-84
2022/07/11 01:59:58;;;;;;;10.23;6.47;;;;;;;16.52;87.89;101617.34;5022279;28;20050;-84
2022/07/11 02:02:24;;;;;;;8.82;6.57;;;;;;;16.43;88.29;101617.53;5022226;28;20069;-84
2022/07/11 02:04:51;;;;;;;10.02;6.50;;;;;;;16.42;88.67;101616.72;5021198;28;20073;-83
2022/07/11 02:08:11;;;;;;;9.25;6.60;;;;;;;16.37;88.78;101615.56;5022513;28;20426;-82
2022/07/11 02:10:05;;;;;;;10.32;6.72;;;;;;;16.27;89.34;101628.97;5020646;28;20056;-82
2022/07/11 02:12:33;;;;;;;6.95;6.25;;;;;;;16.18;89.15;101619.41;5019920;28;20077;-82
2022/07/11 02:14:59;;;;;;;9.40;6.60;;;;;;;16.09;89.74;101617.75;5020580;28;20533;-82
2022/07/11 02:17:26;;;;;;;11.85;7.38;;;;;;;16.03;90.38;101615.81;5020853;28;20085;-82
2022/07/11 02:19:53;;;;;;;13.00;7.10;;;;;;;15.97;90.33;101612.03;5020778;28;20054;-81
2022/07/11 02:22:20;;;;;;;10.50;7.20;;;;;;;15.93;90.71;101610.72;5020706;28;20057;-83
2022/07/11 02:24:47;;;;;;;10.75;6.88;;;;;;;15.84;91.26;101609.91;5006514;28;20050;-82
2022/07/11 02:27:14;;;;;;;9.50;7.00;;;;;;;15.79;91.69;101606.09;5019907;28;20030;-82
2022/07/11 02:29:42;;;;;;;12.75;7.43;;;;;;;15.79;91.74;101612.22;5020840;28;20057;-80
2022/07/11 02:32:08;;;;;;;9.75;7.38;;;;;;;15.79;91.92;101616.66;5019083;28;20058;-83
2022/07/11 02:34:35;;;;;;;10.98;7.13;;;;;;;15.72;92.03;101619.13;5028199;28;20096;-82
2022/07/11 02:37:02;;;;;;;12.57;7.30;;;;;;;15.66;91.99;101616.34;5018463;28;20105;-80
2022/07/11 02:39:28;;;;;;;11.90;7.93;;;;;;;15.59;92.69;101616.19;5021969;28;20050;-83
2022/07/11 02:41:55;;;;;;;13.05;6.90;;;;;;;15.56;92.77;101612.06;5026311;28;20073;-82
2022/07/11 02:44:21;;;;;;;11.07;7.50;;;;;;;15.51;93.27;101616.97;5022614;28;20473;-82
2022/07/11 02:46:49;;;;;;;14.23;7.80;;;;;;;15.46;93.47;101616.63;5020793;28;20081;-82
2022/07/11 02:49:16;;;;;;;10.63;7.13;;;;;;;15.42;93.80;101625.88;5019480;28;20050;-83
2022/07/11 02:51:43;;;;;;;14.27;7.72;;;;;;;15.41;93.94;101626.84;5020105;28;20069;-82
2022/07/11 02:54:09;;;;;;;11.57;8.13;;;;;;;15.43;93.82;101624.88;5020245;28;20050;-84
2022/07/11 02:56:36;;;;;;;13.88;8.32;;;;;;;15.37;94.23;101617.63;5020426;28;20050;-84
2022/07/11 02:59:03;;;;;;;13.75;8.13;;;;;;;15.31;94.45;101625.34;5019985;28;20045;-84
2022/07/11 03:01:29;;;;;;;9.52;8.13;;;;;;;15.34;94.45;101628.50;5024130;28;20073;-83
2022/07/11 03:03:57;;;;;;;19.08;9.20;;;;;;;15.27;94.80;101625.69;5018678;28;20081;-84
2022/07/11 03:06:25;;;;;;;14.82;8.63;;;;;;;15.19;94.83;101627.47;5011247;28;20073;-84
2022/07/11 03:08:52;;;;;;;9.88;8.18;;;;;;;15.13;95.17;101625.47;5022976;28;20057;-83
2022/07/11 03:11:19;;;;;;;12.85;8.52;;;;;;;15.08;95.51;101630.44;5019108;28;20050;-81
2022/07/11 03:13:46;;;;;;;13.15;8.57;;;;;;;15.04;95.53;101626.47;5019187;28;20057;-82
2022/07/11 03:16:12;;;;;;;13.30;8.23;;;;;;;15.05;95.90;101625.47;5019084;28;20425;-81
2022/07/11 03:18:39;;;;;;;10.48;8.25;;;;;;;15.06;95.87;101627.97;5020359;28;20050;-83
2022/07/11 03:21:07;;;;;;;16.60;8.65;;;;;;;15.02;96.10;101634.53;5018121;28;20112;-80
2022/07/11 03:23:35;;;;;;;11.70;9.20;;;;;;;15.02;96.36;101638.97;5019039;28;20053;-81
2022/07/11 03:26:02;;;;;;;14.00;8.98;;;;;;;15.04;96.43;101637.84;5018823;28;20050;-81
2022/07/11 03:28:29;;;;;;;15.38;8.57;;;;;;;15.02;96.53;101638.97;5019200;28;20109;-80
2022/07/11 03:30:56;;;;;;;11.85;7.97;;;;;;;15.06;96.52;101638.50;5018794;28;20510;-79
2022/07/11 03:33:22;;;;;;;10.43;8.23;;;;;;;15.04;96.72;101639.66;5018447;28;20046;-83
2022/07/11 03:35:49;;;;;;;14.85;9.00;;;;;;;15.01;96.96;101642.59;5019353;28;20561;-81
2022/07/11 03:38:20;;;;;;;13.00;8.70;;;;;;;15.06;97.00;101638.50;5018586;28;20077;-83
2022/07/11 03:40:48;;;;;;;11.25;8.23;;;;;;;15.04;96.94;101648.38;5019274;28;20482;-80
2022/07/11 03:43:15;;;;;;;15.73;8.73;;;;;;;15.01;96.98;101650.50;5018863;28;20593;-84
2022/07/11 03:45:42;;;;;;;15.88;9.30;;;;;;;14.99;97.25;101644.56;5018925;28;20053;-81
2022/07/11 03:48:09;;;;;;;12.07;9.05;;;;;;;15.00;97.22;101656.75;5017920;28;20769;-80
2022/07/11 03:50:36;;;;;;;11.35;9.35;;;;;;;14.99;96.98;101650.66;5017645;28;20054;-80
2022/07/11 03:53:03;;;;;;;14.80;9.10;;;;;;;15.04;97.16;101651.00;5019035;28;20069;-79
2022/07/11 03:55:31;;;;;;;11.80;9.00;;;;;;;15.02;96.99;101652.16;5018256;28;20109;-83
2022/07/11 03:57:58;;;;;;;18.58;9.98;;;;;;;14.96;97.09;101655.44;5019953;28;20526;-81
2022/07/11 04:00:25;;;;;;;13.23;9.13;;;;;;;14.96;97.31;101650.16;5021143;28;20073;-83
2022/07/11 04:02:52;;;;;;;15.05;9.20;;;;;;;14.92;97.37;101647.84;5019298;28;20069;-84
2022/07/11 04:05:18;;;;;;;15.63;9.18;;;;;;;14.92;97.45;101649.66;5018663;28;20050;-80
2022/07/11 04:07:45;;;;;;;15.73;9.32;;;;;;;15.00;97.57;101654.13;5018596;28;20480;-82
2022/07/11 04:10:12;;;;;;;15.13;9.80;;;;;;;14.92;97.72;101655.75;5018086;28;20089;-80
2022/07/11 04:12:40;;;;;;;15.65;9.27;;;;;;;15.09;97.44;101663.72;5018737;28;20050;-81
2022/07/11 04:15:07;;;;;;;14.98;9.50;;;;;;;15.12;97.27;101658.13;5018105;28;20087;-81
2022/07/11 04:17:34;;;;;;;12.43;9.57;;;;;;;15.17;96.98;101658.44;5018920;28;20089;-82
2022/07/11 04:20:01;;;;;;;14.02;10.02;;;;;;;15.28;96.83;101658.13;5017745;28;20073;-82
2022/07/11 04:22:27;;;;;;;12.77;9.70;;;;;;;15.38;96.48;101658.00;5021329;28;20069;-82
2022/07/11 04:24:54;;;;;;;14.32;9.13;;;;;;;15.48;96.24;101656.03;5022082;28;20085;-81
2022/07/11 04:27:21;;;;;;;14.93;8.82;;;;;;;15.60;95.56;101666.13;5022571;28;20084;-82
2022/07/11 04:29:49;;;;;;;12.13;9.00;;;;;;;15.63;95.20;101658.88;5022046;28;20098;-83
2022/07/11 04:32:16;;;;;;;15.70;8.60;;;;;;;15.62;95.06;101657.22;5022196;28;20451;-82
2022/07/11 04:34:42;;;;;;;13.73;9.00;;;;;;;15.64;95.25;101660.53;5029477;28;20057;-83
2022/07/11 04:37:09;;;;;;;14.27;8.98;;;;;;;15.66;95.02;101653.28;5029888;28;20046;-82
2022/07/11 04:39:36;;;;;;;11.02;8.15;;;;;;;15.80;94.81;101660.53;5023016;28;20096;-82
2022/07/11 04:42:02;;;;;;;13.20;8.93;;;;;;;15.77;94.61;101651.13;5030022;28;20054;-83
2022/07/11 04:44:30;;;;;;;14.07;8.05;;;;;;;15.79;94.93;101648.34;5029557;28;20490;-81
2022/07/11 04:46:58;;;;;;;16.80;8.88;;;;;;;15.85;94.69;101651.13;5021862;28;20248;-81
2022/07/11 04:49:25;;;;;;;11.52;8.43;;;;;;;15.94;94.64;101651.97;5021100;28;20084;-81
2022/07/11 04:51:51;;;;;;;13.27;8.55;;;;;;;15.89;94.79;101656.91;5022274;28;20521;-81
2022/07/11 04:54:18;;;;;;;16.92;8.88;;;;;;;15.98;94.91;101661.19;5021588;28;20077;-82
2022/07/11 04:56:45;;;;;;;13.43;8.07;;;;;;;16.05;94.85;101664.84;5020265;28;20052;-81
2022/07/11 04:59:13;;;;;;;12.80;8.57;;;;;;;16.03;94.97;101655.44;5020935;28;20050;-82
2022/07/11 05:01:40;;;;;;;12.10;8.20;;;;;;;16.15;94.86;101665.44;5021254;28;20088;-84
2022/07/11 05:04:08;;;;;;;12.02;8.10;;;;;;;16.18;94.36;101659.84;5021424;28;20080;-83
2022/07/11 05:06:35;;;;;;;11.18;7.50;;;;;;;16.26;94.53;101656.38;5021178;28;20060;-83
2022/07/11 05:09:03;;;;;;;9.73;7.68;;;;;;;16.27;94.16;101653.56;5021253;28;20062;-83
2022/07/11 05:11:30;;;;;;;16.10;7.43;;;;;;;16.41;93.91;101661.78;5021853;28;20058;-84
2022/07/11 05:13:57;;;;;;;11.88;7.35;;;;;;;16.42;93.92;101663.44;5021244;28;20049;-82
2022/07/11 05:16:23;;;;;;;10.07;6.80;;;;;;;16.47;93.62;101661.13;5022094;28;20074;-82
2022/07/11 05:18:50;;;;;;;11.73;6.90;;;;;;;16.49;93.53;101669.69;5028103;28;20053;-82
2022/07/11 05:21:22;;;;;;;11.35;7.30;;;;;;;16.48;93.42;101666.22;5030165;28;20080;-83
2022/07/11 05:23:48;;;;;;;8.88;6.90;;;;;;;16.43;93.32;101678.28;5026477;28;20054;-81
2022/07/11 05:26:15;;;;;;;10.00;6.63;;;;;;;16.38;93.45;101667.41;5021167;28;20069;-82
2022/07/11 05:28:42;;;;;;;10.68;6.40;;;;;;;16.36;94.10;101677.31;5020997;28;20522;-82
2022/07/11 05:31:09;;;;;;;10.35;6.22;;;;;;;16.43;94.42;101683.56;5020726;28;20467;-81
2022/07/11 05:33:35;;;;;;;6.75;6.05;;;;;;;16.44;93.90;101677.31;5019896;28;20046;-81
2022/07/11 05:36:05;;;;;;;8.00;5.90;;;;;;;16.44;93.97;101680.75;5022732;28;20056;-84
2022/07/11 05:38:33;;;;;;;8.77;5.95;;;;;;;16.54;93.88;101686.66;5023011;28;20064;-84
2022/07/11 05:40:59;;;;;;;10.40;5.72;;;;;;;16.61;93.96;101681.53;5026097;28;20391;-83
2022/07/11 05:43:26;;;;;;;10.48;6.57;;;;;;;16.67;93.79;101690.63;5025454;28;20048;-83
2022/07/11 05:45:53;;;;;;;8.48;5.88;;;;;;;16.72;93.34;101683.84;5024229;28;20057;-85
2022/07/11 05:48:19;;;;;;;9.00;5.78;;;;;;;16.77;93.05;101685.97;5024106;28;20089;-84
2022/07/11 05:50:46;;;;;;;7.70;5.30;;;;;;;16.82;92.56;101695.03;5022413;28;20092;-84
2022/07/11 05:53:13;;;;;;;11.85;5.53;;;;;;;16.88;92.71;101696.19;5021288;28;20083;-81
2022/07/11 05:55:40;;;;;;;12.02;5.78;;;;;;;16.94;92.15;101692.84;5021077;28;20053;-82
2022/07/11 05:58:07;;;;;;;8.93;6.22;;;;;;;16.99;91.84;101692.34;5020517;28;20140;-83
2022/07/11 06:00:34;;;;;;;7.22;5.00;;;;;;;17.09;91.45;101690.28;5021508;28;20049;-80
2022/07/11 06:03:00;;;;;;;10.55;5.70;;;;;;;17.06;91.65;101690.63;5021485;28;20077;-84
2022/07/11 06:05:27;;;;;;;7.97;5.55;;;;;;;17.08;91.89;101693.94;5024517;28;20077;-83
2022/07/11 06:10:39;;;;;;;8.93;5.57;;;;;;;17.18;91.04;101691.91;5027887;28;20056;-83
2022/07/11 06:13:06;;;;;;;10.23;5.25;;;;;;;17.25;91.11;101688.38;5026061;28;20053;-84
2022/07/11 06:15:33;;;;;;;11.60;5.80;;;;;;;17.24;90.71;101692.03;5025205;28;20168;-82
2022/07/11 06:18:00;;;;;;;9.02;5.60;;;;;;;17.29;90.61;101691.50;5024793;28;20049;-82
2022/07/11 06:20:26;;;;;;;8.32;5.60;;;;;;;17.36;90.66;101691.66;5026181;28;20050;-84
2022/07/11 06:22:53;;;;;;;11.13;5.90;;;;;;;17.44;90.07;101695.06;5025539;28;20052;-81
2022/07/11 06:25:20;;;;;;;9.23;5.70;;;;;;;17.39;89.96;101692.13;5047583;23;20050;-79
2022/07/11 06:27:47;;;;;;;9.13;5.43;;;;;;;17.37;89.83;101685.34;5010235;28;20085;-81
2022/07/11 06:30:15;;;;;;;12.25;6.78;;;;;;;17.48;89.44;101688.44;5022597;28;20454;-82
2022/07/11 06:32:41;;;;;;;10.60;7.30;;;;;;;17.67;89.11;101688.97;5024448;28;20054;-81
2022/07/11 06:35:09;;;;;;;13.10;9.70;;;;;;;17.83;87.61;101683.56;5024495;28;20061;-81
2022/07/11 06:37:36;;;;;;;11.30;9.90;;;;;;;18.03;86.38;101687.34;4985627;28;20055;-82
2022/07/11 06:40:09;;;;;;;12.50;10.02;;;;;;;18.25;85.74;101688.31;4984529;28;20075;-82
2022/07/11 06:42:36;;;;;;;9.25;8.18;;;;;;;18.51;84.69;101693.16;4985107;28;20054;-81
2022/07/11 06:45:03;;;;;;;11.75;7.53;;;;;;;18.52;84.47;101684.22;5011469;28;20479;-82
2022/07/11 06:47:32;;;;;;;11.65;8.90;;;;;;;18.45;83.95;101686.75;5000112;28;20066;-81
2022/07/11 06:49:59;;;;;;;11.63;8.93;;;;;;;18.48;83.94;101683.75;5000385;28;20054;-81
2022/07/11 06:52:26;;;;;;;11.38;8.57;;;;;;;18.44;83.96;101689.59;5002569;28;20062;-81
2022/07/11 06:54:53;;;;;;;13.40;8.40;;;;;;;18.45;83.73;101675.34;5001401;28;20083;-81
2022/07/11 06:57:19;;;;;;;11.80;8.07;;;;;;;18.49;83.48;101689.88;5004948;28;20046;-83
2022/07/11 06:59:46;;;;;;;11.30;8.00;;;;;;;18.56;82.95;101688.13;5003708;28;20054;-82
2022/07/11 07:02:13;;;;;;;15.38;10.38;;;;;;;18.74;82.67;101693.94;5002383;28;20117;-82
2022/07/11 07:04:41;;;;;;;11.65;8.85;;;;;;;18.92;81.36;101684.75;5003189;28;20066;-82
2022/07/11 07:07:07;;;;;;;12.45;9.40;;;;;;;18.98;80.56;101679.53;5003560;28;20088;-83
2022/07/11 07:09:34;;;;;;;18.90;10.02;;;;;;;19.08;80.80;101690.69;5004750;28;20050;-82
2022/07/11 07:12:01;;;;;;;13.98;9.23;;;;;;;18.92;80.77;101680.28;5004020;28;20089;-82
2022/07/11 07:14:27;;;;;;;10.52;8.48;;;;;;;19.05;80.71;101683.09;5003818;28;20466;-82
2022/07/11 07:16:54;;;;;;;13.65;8.93;;;;;;;19.16;80.65;101684.44;4987389;28;20090;-83
2022/07/11 07:19:21;;;;;;;11.80;9.05;;;;;;;19.01;80.46;101692.44;4984516;28;20451;-82
2022/07/11 07:21:49;;;;;;;14.27;9.52;;;;;;;18.86;80.50;101687.16;4984651;28;20046;-80
2022/07/11 07:24:15;;;;;;;20.27;10.80;;;;;;;18.54;81.79;101687.50;4982236;28;20051;-79
2022/07/11 07:26:42;;;;;;;12.63;10.02;;;;;;;18.54;82.11;101692.81;4981212;28;20054;-81
2022/07/11 07:29:09;;;;;;;14.90;9.57;;;;;;;18.69;82.47;101691.00;4980802;28;20086;-81
2022/07/11 07:31:35;;;;;;;13.93;8.80;;;;;;;18.56;82.15;101696.09;4979885;28;20559;-80
2022/07/11 07:34:02;;;;;;;13.30;9.57;;;;;;;18.40;82.66;101694.47;4979629;28;20090;-82
2022/07/11 07:36:28;;;;;;;12.45;8.35;;;;;;;18.50;82.58;101700.28;4976111;28;20054;-78
2022/07/11 07:38:56;;;;;;;10.07;9.07;;;;;;;18.54;82.58;101695.44;4972191;28;20563;-79
2022/07/11 07:41:23;;;;;;;13.10;7.70;;;;;;;18.61;82.67;101711.47;4972314;28;20065;-78
2022/07/11 07:43:51;;;;;;;11.13;8.43;;;;;;;18.45;82.68;101704.50;4972846;28;20142;-80
2022/07/11 07:46:17;;;;;;;10.40;8.02;;;;;;;18.40;83.10;101706.88;4972414;28;20061;-79
2022/07/11 07:48:44;;;;;;;10.55;8.55;;;;;;;18.54;82.60;101703.41;4972160;28;20413;-79
2022/07/11 07:51:11;;;;;;;12.07;9.27;;;;;;;18.53;81.90;101689.31;4972391;28;20515;-79
2022/07/11 07:53:38;;;;;;;11.40;9.88;;;;;;;18.44;82.34;101686.94;4973581;28;20551;-78
2022/07/11 07:56:06;;;;;;;12.32;9.32;;;;;;;18.67;82.40;101695.69;4976643;28;20104;-80
2022/07/11 07:58:33;;;;;;;10.73;8.50;;;;;;;18.76;81.69;101699.88;4985478;28;20137;-79
2022/07/11 08:03:44;;;;;;;9.82;7.93;;;;;;;18.76;81.37;101699.06;5011313;28;20177;-81
2022/07/11 08:06:10;;;;;;;9.93;8.15;;;;;;;18.78;81.43;101705.00;5009855;28;20088;-79
2022/07/11 08:08:37;;;;;;;10.88;8.25;;;;;;;18.67;82.00;101693.03;5003862;28;20082;-81
2022/07/11 08:11:05;;;;;;;11.38;7.07;;;;;;;18.73;81.60;101700.25;5003163;28;20046;-81
2022/07/11 08:13:32;;;;;;;8.38;6.68;;;;;;;18.75;81.89;101687.63;5005335;28;20050;-81
2022/07/11 08:15:59;;;;;;;9.00;6.60;;;;;;;19.02;80.93;101699.38;5002989;28;20509;-81
2022/07/11 08:18:28;;;;;;;8.48;5.80;;;;;;;19.08;80.36;101700.47;5002318;28;20046;-82
2022/07/11 08:20:56;;;;;;;8.07;5.88;;;;;;;18.96;80.65;101701.94;5000102;28;20076;-80
2022/07/11 08:23:23;;;;;;;8.75;6.00;;;;;;;19.04;80.25;101693.91;5003369;28;20046;-81
2022/07/11 08:25:57;;;;;;;7.28;5.85;;;;;;;19.02;80.56;101703.88;4998459;28;20054;-81
2022/07/11 08:28:25;;;;;;;12.82;5.90;;;;;;;19.27;80.12;101697.25;4992075;28;20062;-79
2022/07/11 08:30:52;;;;;;;7.38;5.55;;;;;;;19.22;79.90;101707.59;4989433;28;20105;-79
2022/07/11 08:33:19;;;;;;;7.07;5.18;;;;;;;19.37;79.75;101705.72;4993556;28;20137;-79
2022/07/11 08:35:46;;;;;;;8.60;5.15;;;;;;;19.31;79.54;101690.56;4988666;28;20121;-80
2022/07/11 08:38:13;;;;;;;9.48;4.70;;;;;;;19.38;80.10;101698.56;4998246;28;20042;-80
2022/07/11 08:40:41;;;;;;;6.85;5.00;;;;;;;19.36;80.25;101688.16;4998931;28;20048;-79
2022/07/11 08:43:15;;;;;;;8.48;4.63;;;;;;;19.32;80.08;101694.03;4998494;28;20133;-80
2022/07/11 08:45:43;;;;;;;8.40;4.80;;;;;;;19.19;80.82;101700.81;4996101;28;20057;-79
2022/07/11 08:48:10;;;;;;;6.68;5.00;;;;;;;19.45;80.63;101702.09;4988610;28;20050;-79
2022/07/11 08:50:38;;;;;;;6.55;4.20;;;;;;;19.51;80.21;101696.91;4996191;28;20087;-80
2022/07/11 08:53:06;;;;;;;6.35;4.57;;;;;;;19.68;79.80;101699.31;5006683;28;20134;-80
2022/07/11 08:55:33;;;;;;;8.48;4.50;;;;;;;19.78;78.89;101705.13;4983699;28;20524;-80
2022/07/11 08:58:00;;;;;;;6.68;4.35;;;;;;;20.00;78.30;101700.63;4989717;28;20130;-79
2022/07/11 09:00:26;;;;;;;9.50;4.80;;;;;;;20.29;77.83;101704.94;4990025;28;20137;-80
2022/07/11 09:02:55;;;;;;;9.13;4.32;;;;;;;20.73;75.92;101702.78;4983734;28;20055;-79
2022/07/11 09:05:23;;;;;;;6.40;4.22;;;;;;;21.01;74.50;101704.53;4997945;28;20053;-80
2022/07/11 09:07:51;;;;;;;7.70;4.20;;;;;;;20.99;73.41;101685.28;4998927;28;20050;-78
2022/07/11 09:10:18;;;;;;;5.25;3.83;;;;;;;21.04;74.06;101688.16;4999059;28;20137;-80
2022/07/11 09:13:00;;;;;;;4.85;3.83;;;;;;;21.38;72.43;101690.75;4995026;28;20090;-80
2022/07/11 09:15:35;;;;;;;4.53;3.60;;;;;;;21.28;72.18;101694.81;4993228;28;20515;-80
2022/07/11 09:18:05;;;;;;;6.82;3.47;;;;;;;21.30;72.45;101695.44;4994063;28;20305;-80
2022/07/11 09:26:30;;;;;;;5.00;3.25;;;;;;;21.41;71.07;101689.53;4993057;28;20057;-80
2022/07/11 09:29:04;;;;;;;6.03;3.58;;;;;;;20.75;72.88;101690.13;4997173;28;20081;-79
2022/07/11 09:31:32;;;;;;;4.35;3.80;;;;;;;20.32;74.48;101680.63;4984599;28;20052;-79
2022/07/11 09:34:02;;;;;;;6.38;3.47;;;;;;;20.21;76.08;101687.28;4989540;28;20090;-78
2022/07/11 09:36:39;;;;;;;4.07;3.30;;;;;;;20.61;74.17;101690.22;4987591;28;20096;-79
2022/07/11 09:39:08;;;;;;;3.88;2.95;;;;;;;20.68;73.16;101683.94;4979473;28;20082;-79
2022/07/11 09:41:43;;;;;;;3.53;3.20;;;;;;;20.78;73.21;101679.06;5001521;28;20082;-79
2022/07/11 09:44:16;;;;;;;6.22;3.10;;;;;;;20.56;74.25;101684.69;4999081;28;20050;-79
2022/07/11 09:46:45;;;;;;;3.95;3.13;;;;;;;20.42;74.77;101679.28;4983825;28;20768;-79
2022/07/11 09:49:13;;;;;;;3.80;3.20;;;;;;;20.78;74.29;101688.91;4979542;28;20054;-79
2022/07/11 09:51:41;;;;;;;4.88;2.90;;;;;;;20.98;73.12;101678.31;4978712;28;20054;-80
2022/07/11 09:54:09;;;;;;;4.38;3.00;;;;;;;20.74;73.59;101677.00;4987300;28;20736;-80
2022/07/11 09:56:40;;;;;;;2.92;2.55;;;;;;;21.00;73.41;101665.63;4987223;28;20078;-80
2022/07/11 09:59:08;;;;;;;3.38;2.60;;;;;;;21.33;72.10;101671.91;4995106;28;20412;-81
2022/07/11 10:01:34;;;;;;;4.25;2.70;;;;;;;21.47;71.35;101673.56;4997734;28;20077;-82
2022/07/11 10:04:01;;;;;;;4.65;2.80;;;;;;;21.24;71.55;101667.00;5000116;28;20042;-82
2022/07/11 10:06:29;;;;;;;7.05;3.15;;;;;;;21.20;72.83;101674.53;4998545;28;20105;-81
2022/07/11 10:08:57;;;;;;;3.08;2.72;;;;;;;21.38;71.65;101666.78;4999357;28;20082;-82
2022/07/11 10:11:24;;;;;;;3.97;2.60;;;;;;;21.27;72.70;101672.69;4999873;28;20049;-81
2022/07/11 10:13:51;;;;;;;4.07;2.80;;;;;;;21.51;72.34;101681.97;5000359;28;20078;-81
2022/07/11 10:16:39;;;;;;;6.43;3.35;;;;;;;21.63;70.68;101676.88;4996650;28;20074;-80
2022/07/11 10:19:15;;;;;;;3.47;2.72;;;;;;;21.78;70.89;101677.47;4999422;28;20109;-81
2022/07/11 10:21:48;;;;;;;6.22;2.90;;;;;;;21.13;72.47;101689.66;5000380;28;20109;-81
2022/07/11 10:24:29;;;;;;;4.30;2.95;;;;;;;20.71;73.76;101688.03;5001009;28;20074;-81
2022/07/11 10:27:01;;;;;;;4.75;2.85;;;;;;;20.59;73.92;101690.44;4999732;28;20122;-81
2022/07/11 10:29:34;;;;;;;3.67;3.00;;;;;;;21.04;72.91;101686.34;5000957;28;20050;-82
2022/07/11 10:32:08;;;;;;;4.47;2.90;;;;;;;20.46;74.34;101691.16;5001485;28;20387;-79
2022/07/11 10:34:38;;;;;;;6.40;2.78;;;;;;;20.74;74.08;101701.75;5002410;28;20050;-83
2022/07/11 10:37:11;;;;;;;3.20;2.83;;;;;;;20.87;74.20;101691.16;5018521;28;20194;-81
2022/07/11 10:39:46;;;;;;;3.40;2.35;;;;;;;20.81;73.96;101678.66;5015014;28;20260;-80
2022/07/11 10:42:23;;;;;;;7.70;3.20;;;;;;;20.79;73.93;101701.19;5009054;28;20067;-80
2022/07/11 10:44:51;;;;;;;3.08;2.60;;;;;;;20.41;74.96;101698.06;4997766;28;20137;-80
2022/07/11 10:47:35;;;;;;;2.47;2.28;;;;;;;20.42;75.01;101708.50;4996695;28;20054;-81
2022/07/11 10:50:08;;;;;;;3.65;2.67;;;;;;;20.41;75.83;101700.72;4997115;28;20529;-83
2022/07/11 10:52:40;;;;;;;4.47;2.55;;;;;;;20.24;76.00;101699.38;4996339;28;20089;-81
2022/07/11 10:55:21;;;;;;;3.15;2.70;;;;;;;20.37;75.47;101707.41;4981318;28;20074;-80
2022/07/11 10:57:59;;;;;;;4.45;2.72;;;;;;;20.45;74.92;101700.16;4997760;28;20089;-80
2022/07/11 11:00:25;;;;;;;4.43;3.15;;;;;;;20.09;76.98;101704.78;4996942;28;20060;-81
2022/07/11 11:03:04;;;;;;;6.28;3.60;;;;;;;19.89;77.40;101709.91;4996892;28;20078;-80
2022/07/11 11:05:41;;;;;;;5.93;4.00;;;;;;;19.60;78.24;101716.19;4996977;28;20052;-80
2022/07/11 11:08:43;;;;;;;6.22;3.40;;;;;;;19.73;77.78;101707.53;4997829;28;20498;-80
2022/07/11 11:11:37;;;;;;;4.45;3.78;;;;;;;20.14;76.29;101707.69;4993259;28;20138;-78
2022/07/11 11:14:27;;;;;;;7.88;4.90;;;;;;;20.29;75.96;101712.91;4982001;28;20077;-80
2022/07/11 11:16:54;;;;;;;8.95;5.18;;;;;;;20.19;75.40;101718.56;4993653;28;20065;-80
2022/07/11 11:19:53;;;;;;;7.10;4.88;;;;;;;20.30;75.81;101712.72;4994111;28;20105;-81
2022/07/11 11:22:21;;;;;;;6.72;4.50;;;;;;;20.61;75.42;101720.31;4987212;28;20077;-80
2022/07/11 11:24:52;;;;;;;4.38;3.60;;;;;;;20.61;74.51;101720.31;4984752;28;20492;-79
2022/07/11 11:27:21;;;;;;;5.05;3.40;;;;;;;20.45;75.65;101709.97;4979978;28;20042;-77
2022/07/11 11:29:50;;;;;;;6.38;3.60;;;;;;;20.55;75.73;101721.09;4987311;28;20137;-78
2022/07/11 11:32:17;;;;;;;5.07;2.88;;;;;;;20.54;74.68;101714.13;4979759;28;20166;-79
2022/07/11 11:34:44;;;;;;;6.43;3.50;;;;;;;20.20;75.39;101701.59;4985310;28;20096;-78
2022/07/11 11:37:11;;;;;;;4.80;2.85;;;;;;;20.41;75.38;101708.72;4985936;28;20170;-80
2022/07/11 11:39:40;;;;;;;5.18;2.97;;;;;;;20.78;74.35;101718.97;4985759;28;20116;-79